createdAt,value
2017-12-13T00:01:03.596Z,4.57
2017-12-13T00:06:07.189Z,4.47
2017-12-13T00:11:10.382Z,5.17
2017-12-13T00:16:13.027Z,4.23
2017-12-13T00:21:17.244Z,4.83
2017-12-13T00:26:19.984Z,5.07
2017-12-13T00:31:22.739Z,4.57
2017-12-13T00:36:25.492Z,4.47
2017-12-13T00:41:29.022Z,4.50
2017-12-13T00:46:31.625Z,4.30
2017-12-13T00:51:34.945Z,5.07
2017-12-13T00:56:37.600Z,5.00
2017-12-13T01:01:41.134Z,5.00
2017-12-13T01:06:43.779Z,5.17
2017-12-13T01:11:46.698Z,5.27
2017-12-13T01:16:49.332Z,5.83
2017-12-13T01:21:53.710Z,5.40
2017-12-13T01:26:56.503Z,5.57
2017-12-13T01:31:59.994Z,5.87
2017-12-13T01:37:03.431Z,5.50
2017-12-13T01:42:06.180Z,5.27
2017-12-13T01:47:08.805Z,5.50
2017-12-13T01:52:12.708Z,5.33
2017-12-13T01:57:15.293Z,4.90
2017-12-13T02:02:18.275Z,5.20
2017-12-13T02:07:20.875Z,5.93
2017-12-13T02:12:23.644Z,4.53
2017-12-13T02:17:27.000Z,4.87
2017-12-13T02:22:30.463Z,5.50
2017-12-13T02:27:33.091Z,5.53
2017-12-13T02:32:36.180Z,4.90
2017-12-13T02:37:39.562Z,5.30
2017-12-13T02:42:43.128Z,4.93
2017-12-13T02:47:46.524Z,4.97
2017-12-13T02:52:50.207Z,5.00
2017-12-13T02:57:52.843Z,5.37
2017-12-13T03:02:56.273Z,5.70
2017-12-13T03:07:59.664Z,5.23
2017-12-13T03:13:02.414Z,4.97
2017-12-13T03:18:05.044Z,5.30
2017-12-13T03:23:07.840Z,4.57
2017-12-13T03:28:10.454Z,4.67
2017-12-13T03:33:13.135Z,4.73
2017-12-13T03:38:15.776Z,5.67
2017-12-13T03:43:19.193Z,5.07
2017-12-13T03:48:22.578Z,5.30
2017-12-13T03:53:25.641Z,4.97
2017-12-13T03:58:29.033Z,5.50
2017-12-13T04:03:32.876Z,4.90
2017-12-13T04:08:36.250Z,4.60
2017-12-13T04:13:38.937Z,5.00
2017-12-13T04:18:41.577Z,5.77
2017-12-13T04:23:44.746Z,4.97
2017-12-13T04:28:47.355Z,5.70
2017-12-13T04:33:50.145Z,5.50
2017-12-13T04:38:52.745Z,5.87
2017-12-13T04:43:56.339Z,5.70
2017-12-13T04:48:58.955Z,5.80
2017-12-13T04:54:02.009Z,6.10
2017-12-13T04:59:04.629Z,6.43
2017-12-13T05:04:08.754Z,7.20
2017-12-13T05:09:12.146Z,7.77
2017-12-13T05:14:14.919Z,7.73
2017-12-13T05:19:17.507Z,7.90
2017-12-13T05:24:20.265Z,11.87
2017-12-13T05:29:24.391Z,8.13
2017-12-13T05:34:27.468Z,8.47
2017-12-13T05:39:30.060Z,7.37
2017-12-13T05:44:33.632Z,7.00
2017-12-13T05:49:36.251Z,6.57
2017-12-13T05:54:40.603Z,6.70
2017-12-13T05:59:43.210Z,6.90
2017-12-13T06:04:46.668Z,6.17
2017-12-13T06:09:49.289Z,6.90
2017-12-13T06:14:53.652Z,6.57
2017-12-13T06:19:56.266Z,6.73
2017-12-13T06:24:59.740Z,6.40
2017-12-13T06:30:02.339Z,5.80
2017-12-13T06:35:05.816Z,5.83
2017-12-13T06:40:08.404Z,6.33
2017-12-13T06:45:11.768Z,5.87
2017-12-13T06:50:15.152Z,5.97
2017-12-13T06:55:18.009Z,6.23
2017-12-13T07:00:21.400Z,5.80
2017-12-13T07:05:24.048Z,5.10
2017-12-13T07:10:26.653Z,6.30
2017-12-13T07:15:29.928Z,6.50
2017-12-13T07:20:33.310Z,5.90
2017-12-13T07:25:36.532Z,5.87
2017-12-13T07:30:39.268Z,12.83
2017-12-13T07:35:43.237Z,5.73
2017-12-13T07:40:45.801Z,6.23
2017-12-13T07:45:48.901Z,6.03
2017-12-13T07:50:52.282Z,6.30
2017-12-13T07:55:55.847Z,5.60
2017-12-13T08:00:58.458Z,5.53
2017-12-13T08:06:01.098Z,5.77
2017-12-13T08:11:03.798Z,5.87
2017-12-13T08:16:06.857Z,5.47
2017-12-13T08:21:09.510Z,5.63
2017-12-13T08:26:12.379Z,7.13
2017-12-13T08:31:14.991Z,5.70
2017-12-13T08:36:18.486Z,5.10
2017-12-13T08:41:21.116Z,4.50
2017-12-13T08:46:24.568Z,4.60
2017-12-13T08:51:27.964Z,4.23
2017-12-13T08:56:32.142Z,5.43
2017-12-13T09:01:36.117Z,4.27
2017-12-13T09:06:39.375Z,3.70
2017-12-13T09:11:44.323Z,3.30
2017-12-13T09:16:51.669Z,3.30
2017-12-13T09:21:57.734Z,3.47
2017-12-13T09:27:04.493Z,3.67
2017-12-13T09:32:10.286Z,3.40
2017-12-13T09:37:17.185Z,3.37
2017-12-13T09:42:21.191Z,2.70
2017-12-13T09:47:26.482Z,2.97
2017-12-13T09:52:31.372Z,2.87
2017-12-13T09:57:36.405Z,2.67
2017-12-13T10:02:40.334Z,2.33
2017-12-13T10:07:44.250Z,2.57
2017-12-13T10:12:48.694Z,2.60
2017-12-13T10:17:54.508Z,2.53
2017-12-13T10:22:58.948Z,2.33
2017-12-13T10:28:03.645Z,2.00
2017-12-13T10:33:08.012Z,2.07
2017-12-13T10:38:12.910Z,2.53
2017-12-13T10:43:17.378Z,1.90
2017-12-13T10:48:21.747Z,2.20
2017-12-13T10:53:26.426Z,2.20
2017-12-13T10:58:31.599Z,2.70
2017-12-13T11:03:35.663Z,1.90
2017-12-13T11:08:39.077Z,2.20
2017-12-13T11:13:45.356Z,2.20
2017-12-13T11:18:49.227Z,2.30
2017-12-13T11:23:53.362Z,2.33
2017-12-13T11:28:58.178Z,1.87
2017-12-13T11:34:02.511Z,2.10
2017-12-13T11:39:07.593Z,2.27
2017-12-13T11:44:12.911Z,2.20
2017-12-13T11:49:18.677Z,2.10
2017-12-13T11:54:23.513Z,2.20
2017-12-13T11:59:28.309Z,1.70
2017-12-13T12:04:32.932Z,1.80
2017-12-13T12:09:37.309Z,2.10
2017-12-13T12:14:42.242Z,2.10
2017-12-13T12:19:47.765Z,2.00
2017-12-13T12:24:52.965Z,2.23
2017-12-13T12:29:57.674Z,2.00
2017-12-13T12:35:03.041Z,2.17
2017-12-13T12:40:06.714Z,2.13
2017-12-13T12:45:11.127Z,2.10
2017-12-13T12:50:15.553Z,2.50
2017-12-13T12:55:18.385Z,2.17
2017-12-13T13:00:21.510Z,2.40
2017-12-13T13:05:25.624Z,1.93
2017-12-13T13:10:31.919Z,2.87
2017-12-13T13:15:37.316Z,2.17
2017-12-13T13:20:42.396Z,2.47
2017-12-13T13:25:47.335Z,2.63
2017-12-13T13:30:52.495Z,2.30
2017-12-13T13:35:57.557Z,2.60
2017-12-13T13:41:02.096Z,2.50
2017-12-13T13:46:06.935Z,2.77
2017-12-13T13:51:11.813Z,2.80
2017-12-13T13:56:16.628Z,2.73
2017-12-13T14:01:21.788Z,2.90
2017-12-13T14:06:26.728Z,2.90
2017-12-13T14:11:31.248Z,3.37
2017-12-13T14:16:36.240Z,2.83
2017-12-13T14:21:42.103Z,3.40
2017-12-13T14:26:47.337Z,3.13
2017-12-13T14:31:50.446Z,4.37
2017-12-13T14:36:53.409Z,3.90
2017-12-13T14:41:56.972Z,4.40
2017-12-13T14:47:00.389Z,5.00
2017-12-13T14:52:03.720Z,4.77
2017-12-13T14:57:06.505Z,5.00
2017-12-13T15:02:10.646Z,4.93
2017-12-13T15:07:14.944Z,5.30
2017-12-13T15:12:19.524Z,4.80
2017-12-13T15:17:22.580Z,5.20
2017-12-13T15:22:26.090Z,4.53
2017-12-13T15:27:28.852Z,5.60
2017-12-13T15:32:32.352Z,4.93
2017-12-13T15:37:34.944Z,8.20
2017-12-13T15:42:39.835Z,5.30
2017-12-13T15:47:42.458Z,5.23
2017-12-13T15:52:45.965Z,4.90
2017-12-13T15:57:48.592Z,5.00
2017-12-13T16:02:52.063Z,4.27
2017-12-13T16:07:54.657Z,4.00
2017-12-13T16:12:57.405Z,5.00
2017-12-13T16:18:00.023Z,4.23
2017-12-13T16:23:04.874Z,4.63
2017-12-13T16:28:07.488Z,4.30
2017-12-13T16:33:11.314Z,4.70
2017-12-13T16:38:14.695Z,4.17
2017-12-13T16:43:17.946Z,4.23
2017-12-13T16:48:21.377Z,3.90
2017-12-13T16:53:24.328Z,4.83
2017-12-13T16:58:26.955Z,3.90
2017-12-13T17:03:31.985Z,4.50
2017-12-13T17:08:34.595Z,3.97
2017-12-13T17:13:37.844Z,4.00
2017-12-13T17:18:41.223Z,4.10
2017-12-13T17:23:44.882Z,4.30
2017-12-13T17:28:48.253Z,3.70
2017-12-13T17:33:50.913Z,3.70
2017-12-13T17:38:53.537Z,4.07
2017-12-13T17:43:57.669Z,3.70
2017-12-13T17:49:00.239Z,3.27
2017-12-13T17:54:03.016Z,3.60
2017-12-13T17:59:06.400Z,3.73
2017-12-13T18:04:09.257Z,3.67
2017-12-13T18:09:11.845Z,3.67
2017-12-13T18:14:16.081Z,3.40
2017-12-13T18:19:19.460Z,3.30
2017-12-13T18:24:22.330Z,3.33
2017-12-13T18:29:24.947Z,4.03
2017-12-13T18:34:28.404Z,3.13
2017-12-13T18:39:31.082Z,3.20
2017-12-13T18:44:34.524Z,2.70
2017-12-13T18:49:37.890Z,2.60
2017-12-13T18:54:41.240Z,3.17
2017-12-13T18:59:45.405Z,3.00
2017-12-13T19:04:49.138Z,3.50
2017-12-13T19:09:51.722Z,2.70
2017-12-13T19:14:55.352Z,3.00
2017-12-13T19:19:58.879Z,3.20
2017-12-13T19:25:02.379Z,2.93
2017-12-13T19:30:05.829Z,3.17
2017-12-13T19:35:09.533Z,3.10
2017-12-13T19:40:12.927Z,2.30
2017-12-13T19:45:15.674Z,2.17
2017-12-13T19:50:18.332Z,2.33
2017-12-13T19:55:22.011Z,2.13
2017-12-13T20:00:24.623Z,2.30
2017-12-13T20:05:27.685Z,1.97
2017-12-13T20:10:30.393Z,2.40
2017-12-13T20:15:33.098Z,2.20
2017-12-13T20:20:35.936Z,2.50
2017-12-13T20:25:39.104Z,2.90
2017-12-13T20:30:41.911Z,2.37
2017-12-13T20:35:45.014Z,2.10
2017-12-13T20:40:47.646Z,2.37
2017-12-13T20:45:51.241Z,3.10
2017-12-13T20:50:53.901Z,3.13
2017-12-13T20:55:56.558Z,2.73
2017-12-13T21:00:59.332Z,2.70
2017-12-13T21:06:02.825Z,3.23
2017-12-13T21:11:05.568Z,2.70
2017-12-13T21:16:08.504Z,2.67
2017-12-13T21:21:11.982Z,3.17
2017-12-13T21:26:14.888Z,2.67
2017-12-13T21:31:17.625Z,3.37
2017-12-13T21:36:20.693Z,2.90
2017-12-13T21:41:23.495Z,3.13
2017-12-13T21:46:27.041Z,3.10
2017-12-13T21:51:29.787Z,3.20
2017-12-13T21:56:34.424Z,3.60
2017-12-13T22:01:37.370Z,3.07
2017-12-13T22:06:40.907Z,3.10
2017-12-13T22:11:43.586Z,3.13
2017-12-13T22:16:46.823Z,3.20
2017-12-13T22:21:50.215Z,3.90
2017-12-13T22:26:53.313Z,3.40
2017-12-13T22:31:56.857Z,3.20
2017-12-13T22:37:00.046Z,3.30
2017-12-13T22:42:03.582Z,2.87
2017-12-13T22:47:07.100Z,2.90
2017-12-13T22:52:09.740Z,3.10
2017-12-13T22:57:13.150Z,2.90
2017-12-13T23:02:15.844Z,3.00
2017-12-13T23:07:19.314Z,2.70
2017-12-13T23:12:22.778Z,2.40
2017-12-13T23:17:26.619Z,3.00
2017-12-13T23:22:29.277Z,2.80
2017-12-13T23:27:32.483Z,3.23
2017-12-13T23:32:35.910Z,2.80
2017-12-13T23:37:39.833Z,3.00
2017-12-13T23:42:43.464Z,2.67
2017-12-13T23:47:46.807Z,3.00
2017-12-13T23:52:49.461Z,2.97
2017-12-13T23:57:53.417Z,3.23
